Terminal Aerodrome Forecast
Issued by NWS Portland, OR

Home | Current Version | Previous Version | Text Only | Print | Product List | Glossary On
Versions: 1 2 3 4 5 6 7 8 9 10 11 12 13 14 15 16 17 18 19 20 21 22 23 24 25 26 27 28 29 30
000
FTUS46 KPQR 220520
TAFEUG
TAF
KEUG 220520Z 2206/2306 32008KT P6SM SCT050 BKN100
     FM221100 VRB04KT P6SM SCT025 BKN035 BKN080
     FM221300 30003KT P6SM BKN025 BKN050
     FM221800 32006KT P6SM SCT025 BKN050=

USA.gov is the U.S. government's official web portal to all federal, state and local government web resources and services.